createdAt,value
2019-01-25T00:01:42.590Z,42.23
2019-01-25T00:04:12.056Z,39.57
2019-01-25T00:06:41.427Z,41.10
2019-01-25T00:09:10.775Z,41.60
2019-01-25T00:11:40.084Z,41.03
2019-01-25T00:14:09.489Z,40.87
2019-01-25T00:16:38.931Z,40.60
2019-01-25T00:19:08.286Z,41.77
2019-01-25T00:21:37.611Z,39.80
2019-01-25T00:24:06.988Z,39.67
2019-01-25T00:26:36.315Z,38.53
2019-01-25T00:29:07.177Z,42.23
2019-01-25T00:31:36.475Z,41.20
2019-01-25T00:34:05.921Z,40.83
2019-01-25T00:36:35.245Z,41.97
2019-01-25T00:39:07.699Z,40.80
2019-01-25T00:41:37.145Z,41.57
2019-01-25T00:44:06.708Z,39.73
2019-01-25T00:46:36.065Z,41.57
2019-01-25T00:49:05.628Z,42.43
2019-01-25T00:51:35.012Z,39.97
2019-01-25T00:54:04.879Z,39.33
2019-01-25T00:56:34.255Z,40.07
2019-01-25T00:59:03.642Z,42.73
2019-01-25T01:01:33.101Z,41.63
2019-01-25T01:04:02.433Z,41.60
2019-01-25T01:06:31.819Z,42.20
2019-01-25T01:09:01.208Z,42.83
2019-01-25T01:11:30.508Z,41.83
2019-01-25T01:13:59.864Z,39.17
2019-01-25T01:16:29.287Z,42.33
2019-01-25T01:18:58.641Z,40.57
2019-01-25T01:21:28.026Z,40.03
2019-01-25T01:23:58.847Z,39.20
2019-01-25T01:26:28.417Z,41.90
2019-01-25T01:28:57.738Z,41.33
2019-01-25T01:31:27.090Z,39.50
2019-01-25T01:33:58.242Z,40.13
2019-01-25T01:36:27.690Z,41.77
2019-01-25T01:38:57.051Z,41.00
2019-01-25T01:41:26.352Z,40.43
2019-01-25T01:43:55.744Z,40.73
2019-01-25T01:46:25.195Z,41.10
2019-01-25T01:48:54.560Z,40.67
2019-01-25T01:51:23.909Z,39.53
2019-01-25T01:53:53.391Z,39.77
2019-01-25T01:56:22.708Z,39.97
2019-01-25T01:58:52.067Z,40.43
2019-01-25T02:04:47.966Z,39.87
2019-01-25T02:10:36.505Z,38.50
2019-01-25T02:13:17.965Z,38.83
2019-01-25T02:15:58.807Z,38.27
2019-01-25T02:18:40.282Z,36.90
2019-01-25T02:21:21.520Z,39.07
2019-01-25T02:24:02.325Z,40.00
2019-01-25T02:26:43.036Z,39.23
2019-01-25T02:29:23.904Z,36.93
2019-01-25T02:32:04.648Z,36.67
2019-01-25T02:34:45.552Z,40.23
2019-01-25T02:37:26.414Z,37.53
2019-01-25T02:40:08.198Z,37.57
2019-01-25T02:42:49.462Z,37.97
2019-01-25T02:45:30.259Z,41.03
2019-01-25T02:48:10.060Z,37.97
2019-01-25T02:50:58.989Z,37.00
2019-01-25T02:53:47.474Z,41.07
2019-01-25T02:59:34.874Z,35.60
2019-01-25T03:02:23.539Z,38.27
2019-01-25T03:05:12.198Z,38.73
2019-01-25T03:08:00.734Z,40.60
2019-01-25T03:10:47.008Z,39.67
2019-01-25T03:13:24.764Z,37.90
2019-01-25T03:16:05.431Z,38.60
2019-01-25T03:18:46.344Z,41.67
2019-01-25T03:21:27.703Z,39.93
2019-01-25T03:24:08.488Z,37.00
2019-01-25T03:26:49.331Z,40.27
2019-01-25T03:29:30.746Z,38.73
2019-01-25T03:32:12.390Z,41.63
2019-01-25T03:34:53.551Z,39.40
2019-01-25T03:37:34.181Z,40.80
2019-01-25T03:40:15.661Z,38.60
2019-01-25T03:42:56.450Z,40.67
2019-01-25T03:45:37.726Z,39.87
2019-01-25T03:48:19.129Z,39.10
2019-01-25T03:51:00.024Z,38.63
2019-01-25T03:53:41.401Z,38.47
2019-01-25T03:56:23.199Z,38.70
2019-01-25T03:59:04.075Z,39.00
2019-01-25T04:01:45.042Z,38.73
2019-01-25T04:04:27.366Z,37.47
2019-01-25T04:07:08.111Z,39.33
2019-01-25T04:09:48.902Z,40.70
2019-01-25T04:12:30.490Z,38.23
2019-01-25T04:15:11.557Z,40.33
2019-01-25T04:17:53.299Z,40.47
2019-01-25T04:20:34.679Z,39.53
2019-01-25T04:23:15.380Z,41.70
2019-01-25T04:25:56.793Z,39.23
2019-01-25T04:28:38.385Z,38.40
2019-01-25T04:31:20.258Z,41.30
2019-01-25T04:34:01.251Z,38.13
2019-01-25T04:36:41.974Z,38.30
2019-01-25T04:39:23.548Z,39.93
2019-01-25T04:42:04.915Z,39.30
2019-01-25T04:44:46.295Z,41.00
2019-01-25T04:47:27.319Z,40.80
2019-01-25T04:50:08.416Z,42.10
2019-01-25T04:52:49.696Z,39.47
2019-01-25T04:55:30.498Z,37.77
2019-01-25T04:58:12.249Z,39.57
2019-01-25T05:00:56.272Z,42.23
2019-01-25T05:03:37.409Z,39.87
2019-01-25T05:06:19.028Z,40.33
2019-01-25T05:09:01.069Z,40.87
2019-01-25T05:11:30.986Z,40.30
2019-01-25T05:14:01.576Z,40.73
2019-01-25T05:16:44.541Z,38.50
2019-01-25T05:22:32.873Z,38.40
2019-01-25T05:25:23.008Z,43.27
2019-01-25T05:28:30.779Z,40.80
2019-01-25T05:34:15.057Z,41.80
2019-01-25T05:40:37.301Z,41.93
2019-01-25T05:52:39.050Z,40.77
2019-01-25T05:58:37.701Z,40.23
2019-01-25T06:01:26.568Z,40.97
2019-01-25T06:10:00.253Z,44.70
2019-01-25T06:12:41.370Z,44.33
2019-01-25T06:18:05.502Z,46.17
2019-01-25T06:20:46.939Z,43.43
2019-01-25T06:23:28.728Z,41.97
2019-01-25T06:26:10.328Z,45.27
2019-01-25T06:28:51.585Z,47.03
2019-01-25T06:31:32.749Z,46.00
2019-01-25T06:34:14.455Z,47.40
2019-01-25T06:36:55.706Z,45.73
2019-01-25T06:39:37.485Z,47.83
2019-01-25T06:42:18.856Z,47.97
2019-01-25T06:45:00.158Z,45.07
2019-01-25T06:47:41.762Z,49.73
2019-01-25T06:50:23.839Z,48.00
2019-01-25T06:53:05.520Z,50.27
2019-01-25T06:55:47.350Z,50.20
2019-01-25T06:58:48.785Z,48.50
2019-01-25T07:01:56.421Z,51.87
2019-01-25T07:04:45.014Z,48.17
2019-01-25T07:10:37.372Z,48.70
2019-01-25T07:13:18.695Z,50.53
2019-01-25T07:16:00.281Z,53.77
2019-01-25T07:18:41.792Z,52.70
2019-01-25T07:21:23.361Z,54.30
2019-01-25T07:24:03.913Z,50.93
2019-01-25T07:26:45.505Z,50.80
2019-01-25T07:29:26.986Z,50.80
2019-01-25T07:32:08.448Z,51.43
2019-01-25T07:34:50.001Z,52.60
2019-01-25T07:37:30.763Z,52.10
2019-01-25T07:40:11.877Z,52.47
2019-01-25T07:42:53.503Z,54.53
2019-01-25T07:45:35.043Z,51.90
2019-01-25T07:48:16.469Z,53.30
2019-01-25T07:50:57.313Z,54.33
2019-01-25T07:53:38.917Z,53.30
2019-01-25T07:56:20.200Z,52.43
2019-01-25T07:59:01.900Z,54.20
2019-01-25T08:01:31.708Z,53.13
2019-01-25T08:04:01.373Z,52.27
2019-01-25T08:06:30.961Z,53.13
2019-01-25T08:09:00.747Z,54.67
2019-01-25T08:11:30.341Z,51.10
2019-01-25T08:13:59.828Z,54.80
2019-01-25T08:16:29.369Z,49.63
2019-01-25T08:18:58.935Z,57.30
2019-01-25T08:21:28.442Z,53.33
2019-01-25T08:23:57.997Z,51.37
2019-01-25T08:26:27.641Z,54.73
2019-01-25T08:28:57.461Z,53.60
2019-01-25T08:31:26.917Z,55.60
2019-01-25T08:33:56.545Z,56.10
2019-01-25T08:36:26.346Z,57.10
2019-01-25T08:38:56.239Z,53.07
2019-01-25T08:41:25.865Z,60.37
2019-01-25T08:43:55.636Z,55.20
2019-01-25T08:46:25.231Z,54.93
2019-01-25T08:48:55.112Z,54.37
2019-01-25T08:51:35.973Z,53.23
2019-01-25T08:54:06.260Z,53.80
2019-01-25T08:56:35.822Z,56.63
2019-01-25T08:59:05.809Z,51.03
2019-01-25T09:01:35.534Z,52.47
2019-01-25T09:04:05.464Z,52.73
2019-01-25T09:06:35.126Z,54.77
2019-01-25T09:09:08.639Z,55.30
2019-01-25T09:11:38.614Z,55.77
2019-01-25T09:14:08.097Z,52.63
2019-01-25T09:16:37.574Z,51.40
2019-01-25T09:19:06.952Z,53.00
2019-01-25T09:21:36.326Z,51.10
2019-01-25T09:24:06.814Z,53.63
2019-01-25T09:26:36.256Z,53.33
2019-01-25T09:29:05.828Z,51.83
2019-01-25T09:31:35.538Z,51.30
2019-01-25T09:34:05.343Z,51.23
2019-01-25T09:36:34.913Z,51.90
2019-01-25T09:39:07.647Z,52.73
2019-01-25T09:41:37.503Z,53.07
2019-01-25T09:44:07.233Z,52.00
2019-01-25T09:46:37.067Z,54.13
2019-01-25T09:49:07.050Z,50.83
2019-01-25T09:51:36.618Z,51.30
2019-01-25T09:54:07.599Z,52.23
2019-01-25T09:56:39.365Z,56.07
2019-01-25T09:59:08.993Z,53.77
2019-01-25T10:01:38.933Z,52.83
2019-01-25T10:04:08.598Z,51.73
2019-01-25T10:06:38.290Z,54.20
2019-01-25T10:09:09.763Z,52.63
2019-01-25T10:11:39.613Z,54.63
2019-01-25T10:14:11.530Z,54.67
2019-01-25T10:16:41.252Z,50.80
2019-01-25T10:19:11.183Z,48.93
2019-01-25T10:21:41.385Z,52.30
2019-01-25T10:24:11.148Z,50.67
2019-01-25T10:26:41.980Z,53.60
2019-01-25T10:29:11.872Z,51.93
2019-01-25T10:31:43.586Z,51.73
2019-01-25T10:34:14.740Z,50.37
2019-01-25T10:36:44.421Z,50.13
2019-01-25T10:39:14.881Z,48.57
2019-01-25T10:41:44.739Z,52.17
2019-01-25T10:44:14.755Z,53.23
2019-01-25T10:46:44.545Z,50.17
2019-01-25T10:49:17.417Z,50.50
2019-01-25T10:51:47.786Z,51.40
2019-01-25T10:54:18.374Z,52.80
2019-01-25T10:56:48.615Z,51.73
2019-01-25T10:59:18.519Z,52.03
2019-01-25T11:01:48.431Z,54.77
2019-01-25T11:04:18.757Z,53.20
2019-01-25T11:06:48.533Z,51.30
2019-01-25T11:09:18.541Z,51.73
2019-01-25T11:11:49.743Z,49.03
2019-01-25T11:14:19.771Z,47.90
2019-01-25T11:16:49.737Z,54.13
2019-01-25T11:19:19.706Z,50.77
2019-01-25T11:21:49.693Z,51.73
2019-01-25T11:24:19.245Z,52.63
2019-01-25T11:26:48.934Z,53.37
2019-01-25T11:29:19.020Z,51.40
2019-01-25T11:31:49.193Z,53.33
2019-01-25T11:34:19.166Z,52.73
2019-01-25T11:36:49.819Z,51.47
2019-01-25T11:39:19.912Z,50.03
2019-01-25T11:41:50.522Z,49.77
2019-01-25T11:44:20.342Z,49.50
2019-01-25T11:46:50.150Z,51.33
2019-01-25T11:49:21.746Z,50.60
2019-01-25T11:51:52.108Z,47.13
2019-01-25T11:54:22.175Z,46.20
2019-01-25T11:56:52.505Z,42.20
2019-01-25T11:59:22.733Z,38.77
2019-01-25T12:01:52.856Z,33.90
2019-01-25T12:04:22.609Z,30.90
2019-01-25T12:06:52.504Z,30.67
2019-01-25T12:09:23.618Z,28.63
2019-01-25T12:11:53.562Z,24.93
2019-01-25T12:14:23.464Z,27.77
2019-01-25T12:16:53.141Z,29.97
2019-01-25T12:19:22.884Z,34.20
2019-01-25T12:21:53.782Z,34.63
2019-01-25T12:24:23.687Z,34.20
2019-01-25T12:26:55.087Z,34.40
2019-01-25T12:29:24.912Z,33.37
2019-01-25T12:31:54.388Z,35.93
2019-01-25T12:34:23.712Z,34.33
2019-01-25T12:36:53.104Z,34.93
2019-01-25T12:39:22.517Z,33.17
2019-01-25T12:41:52.327Z,33.07
2019-01-25T12:44:21.687Z,28.97
2019-01-25T12:46:51.123Z,31.23
2019-01-25T12:49:20.522Z,28.87
2019-01-25T12:51:53.779Z,26.07
2019-01-25T12:54:23.148Z,27.23
2019-01-25T12:56:52.513Z,24.30
2019-01-25T12:59:21.856Z,25.57
2019-01-25T13:01:52.361Z,24.73
2019-01-25T13:04:21.851Z,23.63
2019-01-25T13:07:00.348Z,21.50
2019-01-25T13:09:29.732Z,21.93
2019-01-25T13:11:59.148Z,21.43
2019-01-25T13:14:28.643Z,25.20
2019-01-25T13:16:57.970Z,30.60
2019-01-25T13:19:27.333Z,26.67
2019-01-25T13:21:56.684Z,28.60
2019-01-25T13:24:27.209Z,28.07
2019-01-25T13:26:56.515Z,27.53
2019-01-25T13:29:26.563Z,25.20
2019-01-25T13:31:56.323Z,19.97
2019-01-25T13:34:25.879Z,17.17
2019-01-25T13:36:57.153Z,15.23
2019-01-25T13:39:26.515Z,14.43
2019-01-25T13:41:55.908Z,13.07
2019-01-25T13:44:30.110Z,14.30
2019-01-25T13:46:56.378Z,15.17
2019-01-25T13:49:25.734Z,13.60
2019-01-25T13:51:56.079Z,13.67
2019-01-25T13:54:28.804Z,14.00
2019-01-25T13:56:56.809Z,13.93
2019-01-25T13:59:26.147Z,13.70
2019-01-25T14:01:56.896Z,14.30
2019-01-25T14:04:26.245Z,14.30
2019-01-25T14:06:56.676Z,14.63
2019-01-25T14:09:26.042Z,14.90
2019-01-25T14:11:55.567Z,14.40
2019-01-25T14:14:24.921Z,14.33
2019-01-25T14:16:54.402Z,14.47
2019-01-25T14:19:24.883Z,13.47
2019-01-25T14:21:55.417Z,12.90
2019-01-25T14:24:24.796Z,18.23
2019-01-25T14:26:54.336Z,20.57
2019-01-25T14:29:23.698Z,23.47
2019-01-25T14:31:54.624Z,23.40
2019-01-25T14:34:23.910Z,24.67
2019-01-25T14:36:53.357Z,26.00
2019-01-25T14:39:22.680Z,24.30
2019-01-25T14:41:52.128Z,27.00
2019-01-25T14:44:21.574Z,23.10
2019-01-25T14:46:50.964Z,25.13
2019-01-25T14:49:21.739Z,22.30
2019-01-25T14:51:51.213Z,25.30
2019-01-25T14:54:20.585Z,23.37
2019-01-25T14:56:50.037Z,24.37
2019-01-25T14:59:19.467Z,25.37
2019-01-25T15:01:48.888Z,25.67
2019-01-25T15:04:18.242Z,24.13
2019-01-25T15:06:47.637Z,25.80
2019-01-25T15:09:17.000Z,24.27
2019-01-25T15:11:46.419Z,24.20
2019-01-25T15:14:15.849Z,27.00
2019-01-25T15:16:45.327Z,25.30
2019-01-25T15:19:14.720Z,25.03
2019-01-25T15:21:44.086Z,25.83
2019-01-25T15:24:13.564Z,24.03
2019-01-25T15:26:42.905Z,26.30
2019-01-25T15:29:12.336Z,26.13
2019-01-25T15:31:41.764Z,27.77
2019-01-25T15:34:11.178Z,26.47
2019-01-25T15:36:40.628Z,25.90
2019-01-25T15:39:11.547Z,23.60
2019-01-25T15:41:41.190Z,24.93
2019-01-25T15:44:10.582Z,28.27
2019-01-25T15:46:39.938Z,24.60
2019-01-25T15:49:09.327Z,26.73
2019-01-25T15:51:38.736Z,26.43
2019-01-25T15:54:08.133Z,24.97
2019-01-25T15:56:37.487Z,24.57
2019-01-25T15:59:06.872Z,20.83
2019-01-25T16:01:36.335Z,20.27
2019-01-25T16:04:05.766Z,13.23
2019-01-25T16:06:35.123Z,10.27
2019-01-25T16:09:07.115Z,9.57
2019-01-25T16:11:36.515Z,9.33
2019-01-25T16:14:06.020Z,9.50
2019-01-25T16:16:35.342Z,9.43
2019-01-25T16:19:04.749Z,11.00
2019-01-25T16:21:34.204Z,10.53
2019-01-25T16:24:03.644Z,11.17
2019-01-25T16:26:32.996Z,12.57
2019-01-25T16:29:02.441Z,11.00
2019-01-25T16:31:31.896Z,10.87
2019-01-25T16:34:01.265Z,12.03
2019-01-25T16:36:30.708Z,12.30
2019-01-25T16:39:00.125Z,12.67
2019-01-25T16:41:29.616Z,11.73
2019-01-25T16:43:59.005Z,13.57
2019-01-25T16:46:28.388Z,12.77
2019-01-25T16:48:57.747Z,10.67
2019-01-25T16:51:27.281Z,12.27
2019-01-25T16:53:56.664Z,10.70
2019-01-25T16:56:26.104Z,12.93
2019-01-25T16:58:55.515Z,12.70
2019-01-25T17:01:24.887Z,13.73
2019-01-25T17:03:54.249Z,12.80
2019-01-25T17:06:23.971Z,12.30
2019-01-25T17:08:53.330Z,12.83
2019-01-25T17:11:24.526Z,13.23
2019-01-25T17:13:53.876Z,13.53
2019-01-25T17:16:23.334Z,13.77
2019-01-25T17:18:52.716Z,12.70
2019-01-25T17:21:22.216Z,13.37
2019-01-25T17:23:51.600Z,13.67
2019-01-25T17:26:21.000Z,15.53
2019-01-25T17:28:50.442Z,15.70
2019-01-25T17:31:19.823Z,16.30
2019-01-25T17:33:49.195Z,14.63
2019-01-25T17:36:18.640Z,14.93
2019-01-25T17:38:48.064Z,14.23
2019-01-25T17:41:17.520Z,15.43
2019-01-25T17:43:46.942Z,16.47
2019-01-25T17:46:16.386Z,18.20
2019-01-25T17:48:46.004Z,16.10
2019-01-25T17:51:15.381Z,18.40
2019-01-25T17:53:44.775Z,19.23
2019-01-25T17:56:14.160Z,18.50
2019-01-25T17:58:43.552Z,19.00
2019-01-25T18:01:12.937Z,17.50
2019-01-25T18:03:42.338Z,19.30
2019-01-25T18:06:11.743Z,19.07
2019-01-25T18:08:42.055Z,20.73
2019-01-25T18:11:11.485Z,20.93
2019-01-25T18:13:40.904Z,18.43
2019-01-25T18:16:11.371Z,22.03
2019-01-25T18:18:40.740Z,21.80
2019-01-25T18:21:10.111Z,23.83
2019-01-25T18:23:39.588Z,19.47
2019-01-25T18:26:18.783Z,22.27
2019-01-25T18:29:03.296Z,23.67
2019-01-25T18:31:33.121Z,24.83
2019-01-25T18:34:02.498Z,24.27
2019-01-25T18:36:31.917Z,22.77
2019-01-25T18:39:01.362Z,25.33
2019-01-25T18:41:30.765Z,26.33
2019-01-25T18:44:00.113Z,27.43
2019-01-25T18:46:29.505Z,27.30
2019-01-25T18:48:58.959Z,29.57
2019-01-25T18:51:28.384Z,28.67
2019-01-25T18:53:57.740Z,28.23
2019-01-25T18:56:27.548Z,25.97
2019-01-25T18:58:58.355Z,27.03
2019-01-25T19:01:27.697Z,30.57
2019-01-25T19:03:57.171Z,29.37
2019-01-25T19:06:26.526Z,25.80
2019-01-25T19:08:56.048Z,29.63
2019-01-25T19:11:25.667Z,29.00
2019-01-25T19:13:55.012Z,28.10
2019-01-25T19:16:24.523Z,29.70
2019-01-25T19:18:53.932Z,28.80
2019-01-25T19:21:23.526Z,30.50
2019-01-25T19:23:52.902Z,30.27
2019-01-25T19:26:22.407Z,32.67
2019-01-25T19:28:51.796Z,27.90
2019-01-25T19:31:21.286Z,29.50
2019-01-25T19:33:50.643Z,27.63
2019-01-25T19:36:20.097Z,30.77
2019-01-25T19:38:49.527Z,28.27
2019-01-25T19:41:19.010Z,31.60
2019-01-25T19:43:48.459Z,34.57
2019-01-25T19:46:17.964Z,28.93
2019-01-25T19:48:47.435Z,29.17
2019-01-25T19:51:16.860Z,31.53
2019-01-25T19:53:46.270Z,28.00
2019-01-25T19:56:15.664Z,28.27
2019-01-25T19:58:45.025Z,25.90
2019-01-25T20:01:14.372Z,27.40
2019-01-25T20:03:43.798Z,27.03
2019-01-25T20:06:13.172Z,26.90
2019-01-25T20:08:43.352Z,26.17
2019-01-25T20:11:12.908Z,28.57
2019-01-25T20:13:42.322Z,26.37
2019-01-25T20:16:11.688Z,28.67
2019-01-25T20:19:00.260Z,25.13
2019-01-25T20:21:48.675Z,25.43
2019-01-25T20:24:37.268Z,28.77
2019-01-25T20:27:25.678Z,25.43
2019-01-25T20:30:33.194Z,23.97
2019-01-25T20:36:29.161Z,25.80
2019-01-25T20:39:17.599Z,25.67
2019-01-25T20:42:06.008Z,24.90
2019-01-25T20:56:30.691Z,24.17
2019-01-25T21:02:13.401Z,23.80
2019-01-25T21:04:54.726Z,24.73
2019-01-25T21:07:35.304Z,23.83
2019-01-25T21:10:16.562Z,23.90
2019-01-25T21:12:58.004Z,24.17
2019-01-25T21:15:39.694Z,26.53
2019-01-25T21:21:02.379Z,25.40
2019-01-25T21:23:50.775Z,22.87
2019-01-25T21:26:39.236Z,27.80
2019-01-25T21:29:27.647Z,24.73
2019-01-25T21:32:16.091Z,26.40
2019-01-25T21:35:04.934Z,24.53
2019-01-25T21:40:47.166Z,26.73
2019-01-25T21:46:29.650Z,28.10
2019-01-25T21:49:18.147Z,24.37
2019-01-25T21:52:06.674Z,26.83
2019-01-25T22:01:01.592Z,25.20
2019-01-25T22:03:50.035Z,27.37
2019-01-25T22:06:38.440Z,26.87
2019-01-25T22:09:27.848Z,27.67
2019-01-25T22:12:08.723Z,24.43
2019-01-25T22:14:49.489Z,26.87
2019-01-25T22:17:30.043Z,24.47
2019-01-25T22:20:10.581Z,25.90
2019-01-25T22:22:51.917Z,24.13
2019-01-25T22:25:32.493Z,24.23
2019-01-25T22:28:13.801Z,23.87
2019-01-25T22:30:54.891Z,24.77
2019-01-25T22:33:35.404Z,25.17
2019-01-25T22:36:16.827Z,23.97
2019-01-25T22:38:58.299Z,23.53
2019-01-25T22:41:38.968Z,25.60
2019-01-25T22:44:19.852Z,25.20
2019-01-25T22:47:00.984Z,23.83
2019-01-25T22:49:41.820Z,23.80
2019-01-25T22:52:22.516Z,21.70
2019-01-25T22:55:03.223Z,22.80
2019-01-25T22:57:44.606Z,23.60
2019-01-25T23:00:25.241Z,23.27
2019-01-25T23:03:05.983Z,22.93
2019-01-25T23:05:46.622Z,22.90
2019-01-25T23:08:27.551Z,24.30
2019-01-25T23:11:08.232Z,22.67
2019-01-25T23:13:49.603Z,23.47
2019-01-25T23:16:31.096Z,24.03
2019-01-25T23:19:12.656Z,24.03
2019-01-25T23:21:54.188Z,24.27
2019-01-25T23:24:34.690Z,24.00
2019-01-25T23:27:16.123Z,25.17
2019-01-25T23:29:57.449Z,25.33
2019-01-25T23:32:38.913Z,24.10
2019-01-25T23:35:19.533Z,24.50
2019-01-25T23:38:01.050Z,23.40
2019-01-25T23:40:41.715Z,23.83
2019-01-25T23:43:22.228Z,24.60
2019-01-25T23:46:03.829Z,24.57
2019-01-25T23:48:45.305Z,23.97
2019-01-25T23:51:26.648Z,23.77
2019-01-25T23:54:07.506Z,24.50
2019-01-25T23:56:49.111Z,24.40
2019-01-25T23:59:30.114Z,24.43
